Time;durP1;ratioP1;P1;durP2;ratioP2;P2;SDS_P1;SDS_P2;PMS_P1;PMS_P2;Temp;Humidity;BMP_temperature;BMP_pressure;BME280_temperature;BME280_humidity;BME280_pressure;Samples;Min_cycle;Max_cycle;Signal;HPM_P1;HPM_P2
2021/04/03 00:01:03;;;;;;;7.10;3.77;;;11.40;99.90;;;;;;1795308;80;21594;-74
2021/04/03 00:03:31;;;;;;;10.65;3.85;;;11.40;99.90;;;;;;1802380;78;21168;-77
2021/04/03 00:05:59;;;;;;;5.53;3.70;;;11.50;99.90;;;;;;1827582;78;21156;-77
2021/04/03 00:08:27;;;;;;;5.15;3.33;;;11.40;99.90;;;;;;1827421;78;21576;-76
2021/04/03 00:11:07;;;;;;;7.78;3.35;;;11.40;99.90;;;;;;1828044;78;21128;-77
2021/04/03 00:13:41;;;;;;;8.65;3.60;;;11.30;99.90;;;;;;1828644;78;21117;-77
2021/04/03 00:16:10;;;;;;;11.68;3.90;;;11.30;99.90;;;;;;1828010;78;21266;-78
2021/04/03 00:18:38;;;;;;;8.23;3.50;;;11.30;99.90;;;;;;1828018;78;21149;-79
2021/04/03 00:21:06;;;;;;;7.50;2.98;;;11.50;99.90;;;;;;1828534;78;21271;-78
2021/04/03 00:23:33;;;;;;;9.23;3.15;;;11.60;99.90;;;;;;1828707;78;21670;-78
2021/04/03 00:26:03;;;;;;;5.97;3.00;;;11.60;99.90;;;;;;1828514;78;21144;-78
2021/04/03 00:28:31;;;;;;;6.45;3.22;;;11.60;99.90;;;;;;1828593;78;21646;-79
2021/04/03 00:30:58;;;;;;;6.22;3.40;;;11.50;99.90;;;;;;1823584;78;21188;-79
2021/04/03 00:33:26;;;;;;;5.22;3.02;;;11.60;99.90;;;;;;1819747;79;21153;-77
2021/04/03 00:35:54;;;;;;;9.90;3.70;;;11.50;99.90;;;;;;1819145;78;21128;-77
2021/04/03 00:38:22;;;;;;;7.92;3.42;;;11.50;99.90;;;;;;1819617;79;21286;-78
2021/04/03 00:40:51;;;;;;;7.35;3.37;;;11.40;99.90;;;;;;1819619;79;21279;-78
2021/04/03 00:43:23;;;;;;;9.55;3.65;;;11.30;99.90;;;;;;1819321;79;21142;-78
2021/04/03 00:45:52;;;;;;;5.97;3.62;;;11.30;99.90;;;;;;1819634;79;21283;-78
2021/04/03 00:48:21;;;;;;;7.08;4.12;;;11.20;99.90;;;;;;1819597;79;21330;-79
2021/04/03 00:50:52;;;;;;;5.90;3.92;;;11.20;99.90;;;;;;1819055;79;21102;-77
2021/04/03 00:53:25;;;;;;;9.58;4.20;;;11.10;99.90;;;;;;1819220;79;21118;-76
2021/04/03 00:55:55;;;;;;;8.30;3.80;;;11.10;99.90;;;;;;1817914;79;21141;-76
2021/04/03 00:58:25;;;;;;;7.17;4.65;;;11.10;99.90;;;;;;1819133;79;21148;-78
2021/04/03 01:00:53;;;;;;;7.80;4.80;;;11.10;99.90;;;;;;1819010;79;21126;-77
2021/04/03 01:03:25;;;;;;;8.18;4.78;;;11.10;99.90;;;;;;1819022;79;21145;-77
2021/04/03 01:05:54;;;;;;;8.33;5.10;;;11.10;99.90;;;;;;1819065;79;21090;-78
2021/04/03 01:08:23;;;;;;;9.10;5.53;;;11.00;99.90;;;;;;1819104;79;21126;-77
2021/04/03 01:10:55;;;;;;;9.83;5.17;;;10.90;99.90;;;;;;1819405;79;21129;-78
2021/04/03 01:13:51;;;;;;;8.93;5.58;;;10.90;99.90;;;;;;1819620;79;21236;-78
2021/04/03 01:16:51;;;;;;;10.15;5.25;;;10.80;99.90;;;;;;1819073;79;21136;-77
2021/04/03 01:19:53;;;;;;;7.30;4.70;;;10.70;99.90;;;;;;1819364;79;21102;-79
2021/04/03 01:22:36;;;;;;;8.05;5.22;;;10.60;99.90;;;;;;1819703;79;21140;-79
2021/04/03 01:25:21;;;;;;;9.10;5.05;;;10.50;99.90;;;;;;1818656;79;21133;-78
2021/04/03 01:28:35;;;;;;;9.18;4.65;;;10.50;99.90;;;;;;1811493;79;21173;-79
2021/04/03 01:31:04;;;;;;;8.58;4.67;;;10.50;99.90;;;;;;1821248;79;21164;-79
2021/04/03 01:33:38;;;;;;;7.60;5.03;;;10.50;99.90;;;;;;1825053;79;21109;-79
2021/04/03 01:36:20;;;;;;;9.45;4.78;;;10.50;99.90;;;;;;1825242;79;21116;-77
2021/04/03 01:38:56;;;;;;;7.22;4.70;;;10.60;99.90;;;;;;1825252;79;21547;-78
2021/04/03 01:41:28;;;;;;;8.45;5.00;;;10.60;99.90;;;;;;1824769;79;21125;-78
2021/04/03 01:43:59;;;;;;;14.60;4.65;;;10.60;99.90;;;;;;1824983;79;21125;-78
2021/04/03 01:46:34;;;;;;;11.40;4.80;;;10.60;99.90;;;;;;1824784;79;21168;-78
2021/04/03 01:49:10;;;;;;;11.88;4.70;;;10.60;99.90;;;;;;1824947;79;21109;-77
2021/04/03 01:51:47;;;;;;;8.08;4.25;;;10.60;99.90;;;;;;1824762;79;21105;-77
2021/04/03 01:54:19;;;;;;;9.38;4.42;;;10.50;99.90;;;;;;1825301;79;21125;-77
2021/04/03 01:56:51;;;;;;;8.88;4.22;;;10.50;99.90;;;;;;1825142;79;21129;-77
2021/04/03 01:59:21;;;;;;;9.00;4.72;;;10.40;99.90;;;;;;1825232;79;21129;-77
2021/04/03 02:01:55;;;;;;;7.78;4.42;;;10.50;99.90;;;;;;1825038;79;21598;-77
2021/04/03 02:04:25;;;;;;;6.90;4.45;;;10.60;99.90;;;;;;1789998;79;21149;-77
2021/04/03 02:06:54;;;;;;;11.10;4.85;;;10.60;99.90;;;;;;1824996;79;21145;-77
2021/04/03 02:09:27;;;;;;;9.30;4.60;;;10.60;99.90;;;;;;1823516;79;21141;-77
2021/04/03 02:11:57;;;;;;;9.25;4.62;;;10.50;99.90;;;;;;1823246;79;21125;-77
2021/04/03 02:14:49;;;;;;;7.62;4.70;;;10.50;99.90;;;;;;1824887;79;21157;-75
2021/04/03 02:17:20;;;;;;;9.05;4.30;;;10.50;99.90;;;;;;1824910;79;21129;-75
2021/04/03 02:19:49;;;;;;;7.05;4.22;;;10.40;99.90;;;;;;1824858;78;21106;-77
2021/04/03 02:22:19;;;;;;;7.40;4.40;;;10.30;99.90;;;;;;1824880;79;21540;-78
2021/04/03 02:24:49;;;;;;;7.33;4.45;;;10.30;99.90;;;;;;1824548;79;21583;-77
2021/04/03 02:27:17;;;;;;;7.60;4.08;;;10.30;99.90;;;;;;1825052;79;21599;-78
2021/04/03 02:29:46;;;;;;;8.95;4.75;;;10.30;99.90;;;;;;1825295;79;21567;-76
2021/04/03 02:32:14;;;;;;;7.75;4.53;;;10.40;99.90;;;;;;1820740;79;21212;-75
2021/04/03 02:34:43;;;;;;;8.58;5.03;;;10.40;99.90;;;;;;1819607;79;21140;-76
2021/04/03 02:37:12;;;;;;;10.32;5.45;;;10.30;99.90;;;;;;1814647;79;21603;-77
2021/04/03 02:39:41;;;;;;;9.90;6.05;;;10.30;99.90;;;;;;1819633;79;21160;-77
2021/04/03 02:42:16;;;;;;;11.33;6.22;;;10.30;99.90;;;;;;1819377;79;21141;-77
2021/04/03 02:44:57;;;;;;;9.08;5.55;;;10.30;99.60;;;;;;1819136;79;21115;-77
2021/04/03 02:47:36;;;;;;;8.95;4.70;;;10.30;99.90;;;;;;1787650;79;21161;-79
2021/04/03 02:50:09;;;;;;;10.55;6.35;;;10.40;99.90;;;;;;1814846;79;21130;-78
2021/04/03 02:52:40;;;;;;;12.55;7.30;;;10.30;99.90;;;;;;1819142;79;21130;-78
2021/04/03 02:55:12;;;;;;;14.35;7.50;;;10.30;99.90;;;;;;1819856;79;21528;-78
2021/04/03 02:57:42;;;;;;;13.03;7.70;;;10.30;99.90;;;;;;1819139;79;21106;-77
2021/04/03 03:00:14;;;;;;;11.18;7.33;;;10.30;98.90;;;;;;1819109;79;21132;-78
2021/04/03 03:02:44;;;;;;;12.75;7.62;;;10.30;99.50;;;;;;1787285;79;21121;-77
2021/04/03 03:05:15;;;;;;;12.07;7.58;;;10.20;99.30;;;;;;1788011;79;21090;-77
2021/04/03 03:07:46;;;;;;;13.00;7.83;;;10.10;98.80;;;;;;1819127;79;21150;-78
2021/04/03 03:10:17;;;;;;;13.30;7.67;;;10.10;99.00;;;;;;1819123;79;21097;-76
2021/04/03 03:12:49;;;;;;;13.08;7.80;;;10.00;99.00;;;;;;1819114;79;21113;-76
2021/04/03 03:15:23;;;;;;;13.78;8.05;;;9.90;99.90;;;;;;1819430;79;21545;-78
2021/04/03 03:17:53;;;;;;;13.00;6.75;;;9.80;99.70;;;;;;1819169;79;21556;-78
2021/04/03 03:20:22;;;;;;;14.80;7.25;;;9.80;99.90;;;;;;1819696;79;21686;-78
2021/04/03 03:22:51;;;;;;;12.60;7.08;;;9.60;99.90;;;;;;1819707;79;21275;-78
2021/04/03 03:25:23;;;;;;;13.08;6.92;;;9.60;99.90;;;;;;1819177;79;21161;-79
2021/04/03 03:27:53;;;;;;;10.78;6.33;;;9.50;99.90;;;;;;1819052;79;21122;-78
2021/04/03 03:30:25;;;;;;;18.55;6.87;;;9.50;99.90;;;;;;1819045;79;21140;-78
2021/04/03 03:32:55;;;;;;;15.58;7.00;;;9.70;99.90;;;;;;1819002;79;21125;-78
2021/04/03 03:35:24;;;;;;;10.28;5.85;;;9.70;99.90;;;;;;1819170;79;21146;-78
2021/04/03 03:37:55;;;;;;;10.98;5.83;;;9.80;98.90;;;;;;1787361;80;21156;-78
2021/04/03 03:40:26;;;;;;;11.48;5.80;;;9.90;99.70;;;;;;1787644;80;21133;-77
2021/04/03 03:42:56;;;;;;;13.03;6.58;;;9.90;99.90;;;;;;1792453;79;21090;-77
2021/04/03 03:45:27;;;;;;;13.18;7.33;;;10.00;99.90;;;;;;1791579;79;21160;-77
2021/04/03 03:47:58;;;;;;;9.58;6.47;;;10.10;99.90;;;;;;1768029;81;21144;-78
2021/04/03 03:50:28;;;;;;;10.20;5.92;;;10.20;99.80;;;;;;1776289;79;21158;-77
2021/04/03 03:52:56;;;;;;;16.07;6.65;;;10.10;98.10;;;;;;1819303;79;21137;-78
2021/04/03 03:55:24;;;;;;;12.53;6.70;;;10.10;99.80;;;;;;1814694;79;21165;-79
2021/04/03 03:57:52;;;;;;;13.50;6.97;;;10.10;99.90;;;;;;1786955;80;21164;-79
2021/04/03 04:00:21;;;;;;;12.80;6.80;;;10.00;99.90;;;;;;1790008;79;21603;-79
2021/04/03 04:02:51;;;;;;;13.03;6.83;;;10.00;99.90;;;;;;1818259;79;21140;-78
2021/04/03 04:05:21;;;;;;;10.13;6.40;;;10.00;99.90;;;;;;1815652;79;21121;-79
2021/04/03 04:07:50;;;;;;;9.70;6.30;;;10.00;99.90;;;;;;1796759;79;21563;-78
2021/04/03 04:10:19;;;;;;;9.68;5.70;;;10.00;99.90;;;;;;1797258;79;21540;-77
2021/04/03 04:12:47;;;;;;;10.03;6.40;;;10.00;99.90;;;;;;1787840;79;21136;-78
2021/04/03 04:15:17;;;;;;;12.93;6.67;;;10.00;99.90;;;;;;1786979;80;21564;-78
2021/04/03 04:17:45;;;;;;;10.95;6.17;;;9.90;99.30;;;;;;1786861;80;21291;-77
2021/04/03 04:20:14;;;;;;;10.35;6.50;;;9.90;99.40;;;;;;1786932;80;21274;-77
2021/04/03 04:22:44;;;;;;;11.73;6.42;;;9.90;99.90;;;;;;1787187;79;21129;-76
2021/04/03 04:25:13;;;;;;;11.50;6.70;;;9.90;99.90;;;;;;1786884;80;21169;-76
2021/04/03 04:27:42;;;;;;;10.98;6.33;;;9.90;99.90;;;;;;1787203;79;21149;-76
2021/04/03 04:30:12;;;;;;;11.08;6.50;;;9.90;99.90;;;;;;1787377;80;21144;-77
2021/04/03 04:32:44;;;;;;;12.28;5.70;;;9.90;99.90;;;;;;1787685;79;21149;-76
2021/04/03 04:35:15;;;;;;;11.35;6.25;;;10.00;99.90;;;;;;1787285;79;21134;-77
2021/04/03 04:37:43;;;;;;;10.43;6.22;;;10.00;99.90;;;;;;1806864;79;21149;-76
2021/04/03 04:40:15;;;;;;;12.05;6.62;;;10.10;99.90;;;;;;1786998;80;21129;-77
2021/04/03 04:42:44;;;;;;;12.10;6.00;;;10.10;99.90;;;;;;1787176;80;21563;-77
2021/04/03 04:45:14;;;;;;;10.18;5.87;;;10.10;99.90;;;;;;1787280;80;21117;-77
2021/04/03 04:47:42;;;;;;;9.58;5.97;;;10.10;99.50;;;;;;1807097;79;21152;-76
2021/04/03 04:50:12;;;;;;;10.40;5.87;;;10.10;99.80;;;;;;1787062;80;21202;-77
2021/04/03 04:52:40;;;;;;;10.38;5.72;;;10.10;99.60;;;;;;1787062;80;21161;-77
2021/04/03 04:55:11;;;;;;;9.98;5.80;;;10.10;99.50;;;;;;1787109;80;21606;-77
2021/04/03 04:57:40;;;;;;;12.20;5.17;;;10.10;99.90;;;;;;1787015;80;21153;-77
2021/04/03 05:00:11;;;;;;;11.43;5.90;;;10.20;99.90;;;;;;1787238;79;21575;-78
2021/04/03 05:02:41;;;;;;;10.28;5.58;;;10.10;99.90;;;;;;1757120;80;21267;-78
2021/04/03 05:05:09;;;;;;;10.00;5.55;;;10.20;99.90;;;;;;1787160;80;21160;-78
2021/04/03 05:07:37;;;;;;;11.30;5.87;;;10.20;99.30;;;;;;1787232;80;21169;-77
2021/04/03 05:10:06;;;;;;;18.65;10.93;;;10.30;99.00;;;;;;1795825;79;21124;-78
2021/04/03 05:12:34;;;;;;;19.17;11.55;;;10.40;98.20;;;;;;1796853;79;21572;-78
2021/04/03 05:15:02;;;;;;;18.90;10.13;;;10.50;97.00;;;;;;1793648;79;21129;-78
2021/04/03 05:17:30;;;;;;;14.05;8.90;;;10.60;96.90;;;;;;1793607;79;21591;-77
2021/04/03 05:19:58;;;;;;;12.00;7.75;;;10.60;96.80;;;;;;1790374;79;21136;-75
2021/04/03 05:22:25;;;;;;;12.33;7.53;;;10.70;97.00;;;;;;1792065;79;21136;-76
2021/04/03 05:24:53;;;;;;;11.83;7.78;;;10.70;97.50;;;;;;1797719;79;21193;-76
2021/04/03 05:27:20;;;;;;;11.88;7.85;;;10.60;96.60;;;;;;1793460;79;21140;-77
2021/04/03 05:29:48;;;;;;;10.95;7.10;;;10.70;97.30;;;;;;1792736;79;21132;-76
2021/04/03 05:32:16;;;;;;;12.20;7.00;;;10.60;97.10;;;;;;1790082;79;21141;-76
2021/04/03 05:34:44;;;;;;;11.40;6.60;;;10.60;97.10;;;;;;1801487;79;21169;-76
2021/04/03 05:37:14;;;;;;;11.57;6.55;;;10.70;97.50;;;;;;1800229;79;21118;-78
2021/04/03 05:39:41;;;;;;;12.95;7.08;;;10.70;96.80;;;;;;1793073;79;21144;-78
2021/04/03 05:42:16;;;;;;;12.85;7.05;;;10.80;94.60;;;;;;1791778;80;21563;-76
2021/04/03 05:44:44;;;;;;;12.05;7.42;;;10.80;92.40;;;;;;1792738;80;21129;-77
2021/04/03 05:47:13;;;;;;;12.82;7.70;;;10.80;93.20;;;;;;1762461;80;21149;-75
2021/04/03 05:49:42;;;;;;;13.50;7.45;;;10.80;91.80;;;;;;1792574;80;21279;-76
2021/04/03 05:52:10;;;;;;;16.93;9.05;;;10.80;91.20;;;;;;1798566;79;21181;-76
2021/04/03 05:54:39;;;;;;;13.03;8.08;;;10.80;91.90;;;;;;1791079;79;21148;-76
2021/04/03 05:57:08;;;;;;;14.78;9.03;;;10.90;91.70;;;;;;1795414;79;21129;-75
2021/04/03 05:59:36;;;;;;;16.77;8.25;;;10.80;91.70;;;;;;1789855;80;21555;-75
2021/04/03 06:02:05;;;;;;;17.45;8.83;;;10.90;91.60;;;;;;1793243;79;21128;-74
2021/04/03 06:04:33;;;;;;;14.70;8.70;;;10.90;92.10;;;;;;1793211;79;21130;-76
2021/04/03 06:07:03;;;;;;;15.63;8.75;;;10.90;93.70;;;;;;1797325;79;21141;-75
2021/04/03 06:09:31;;;;;;;14.78;8.20;;;10.90;93.80;;;;;;1789831;80;21136;-76
2021/04/03 06:11:59;;;;;;;12.75;8.48;;;10.90;94.40;;;;;;1789338;79;21144;-75
2021/04/03 06:14:29;;;;;;;19.23;10.05;;;10.80;95.70;;;;;;1806835;79;21560;-75
2021/04/03 06:16:56;;;;;;;19.82;11.35;;;10.90;95.50;;;;;;1797668;79;21143;-75
2021/04/03 06:19:26;;;;;;;14.45;8.80;;;10.90;96.00;;;;;;1811130;79;21117;-75
2021/04/03 06:21:58;;;;;;;15.68;8.83;;;11.00;93.40;;;;;;1819374;79;21555;-74
2021/04/03 06:24:31;;;;;;;19.30;10.30;;;11.00;93.20;;;;;;1817352;79;21094;-75
2021/04/03 06:27:08;;;;;;;17.32;10.70;;;11.00;94.50;;;;;;1787068;80;21536;-76
2021/04/03 06:29:46;;;;;;;18.40;9.68;;;11.00;94.50;;;;;;1787323;79;21137;-78
2021/04/03 06:32:24;;;;;;;22.58;12.00;;;11.00;92.70;;;;;;1788921;80;21156;-76
2021/04/03 06:34:54;;;;;;;21.95;11.43;;;11.10;93.00;;;;;;1792861;80;21156;-74
2021/04/03 06:37:32;;;;;;;17.75;10.72;;;11.20;92.50;;;;;;1796290;79;21648;-72
2021/04/03 06:40:08;;;;;;;19.20;11.05;;;11.10;92.50;;;;;;1795144;79;21156;-72
2021/04/03 06:42:39;;;;;;;;;;;11.10;93.00;;;;;;1812479;78;21121;-73
2021/04/03 06:45:32;;;;;;;17.92;10.03;;;11.10;92.10;;;;;;1794974;79;20422;-73
2021/04/03 06:48:02;;;;;;;20.02;11.00;;;11.10;92.20;;;;;;1795300;80;21611;-75
2021/04/03 06:50:49;;;;;;;20.43;11.12;;;11.20;92.90;;;;;;1795259;79;21145;-73
2021/04/03 06:53:19;;;;;;;18.60;11.48;;;11.20;93.10;;;;;;1795506;80;21283;-75
2021/04/03 06:55:49;;;;;;;19.95;11.50;;;11.20;93.10;;;;;;1795340;79;21129;-75
2021/04/03 06:58:18;;;;;;;21.20;11.18;;;11.30;93.10;;;;;;1795139;79;21098;-75
2021/04/03 07:00:49;;;;;;;18.10;11.45;;;11.30;92.40;;;;;;1795337;80;21575;-76
2021/04/03 07:03:23;;;;;;;21.97;11.03;;;11.40;91.10;;;;;;1795251;79;21307;-72
2021/04/03 07:05:52;;;;;;;20.15;11.78;;;11.40;91.60;;;;;;1737365;82;21148;-72
2021/04/03 07:08:23;;;;;;;22.55;12.13;;;11.50;91.70;;;;;;1742926;81;21153;-74
2021/04/03 07:10:53;;;;;;;19.00;10.65;;;11.50;92.00;;;;;;1765770;81;21149;-74
2021/04/03 07:13:21;;;;;;;17.27;10.43;;;11.60;91.30;;;;;;1765763;80;21169;-74
2021/04/03 07:15:52;;;;;;;19.48;11.45;;;11.70;90.60;;;;;;1765991;81;21590;-72
2021/04/03 07:18:22;;;;;;;21.48;13.28;;;11.70;90.40;;;;;;1762830;81;21133;-73
2021/04/03 07:20:52;;;;;;;27.60;16.97;;;11.70;90.90;;;;;;1765669;81;21590;-73
2021/04/03 07:23:22;;;;;;;25.88;14.58;;;11.50;90.20;;;;;;1765839;81;21165;-73
2021/04/03 07:25:52;;;;;;;22.73;12.95;;;11.40;90.80;;;;;;1765552;81;21161;-73
2021/04/03 07:28:22;;;;;;;22.60;13.53;;;11.30;89.60;;;;;;1765565;80;21608;-73
2021/04/03 07:30:50;;;;;;;22.02;12.78;;;11.30;90.90;;;;;;1765638;81;21153;-74
2021/04/03 07:33:21;;;;;;;18.65;12.45;;;11.30;91.30;;;;;;1766028;81;21303;-74
2021/04/03 07:35:59;;;;;;;22.75;13.88;;;11.40;92.00;;;;;;1764276;81;21455;-73
2021/04/03 07:38:37;;;;;;;24.47;16.45;;;11.50;91.70;;;;;;1735322;82;21709;-73
2021/04/03 07:41:15;;;;;;;29.85;19.02;;;11.60;91.40;;;;;;1713146;84;21548;-73
2021/04/03 07:43:48;;;;;;;29.25;19.67;;;11.60;90.70;;;;;;1758316;81;21552;-74
2021/04/03 07:46:24;;;;;;;28.60;17.42;;;11.60;90.80;;;;;;1758500;81;21617;-74
2021/04/03 07:48:55;;;;;;;28.30;18.27;;;11.60;90.50;;;;;;1758408;81;21134;-72
2021/04/03 07:51:32;;;;;;;22.62;14.35;;;11.70;91.00;;;;;;1758221;81;21134;-73
2021/04/03 07:54:02;;;;;;;28.30;16.05;;;11.90;88.30;;;;;;1758747;81;21577;-73
2021/04/03 07:56:52;;;;;;;27.37;17.12;;;12.00;88.50;;;;;;1757822;81;21200;-69
2021/04/03 07:59:47;;;;;;;23.92;15.83;;;12.00;90.00;;;;;;1733745;81;21152;-68
2021/04/03 08:02:19;;;;;;;24.35;15.10;;;12.10;89.60;;;;;;1726741;83;21208;-79
2021/04/03 08:04:47;;;;;;;17.25;11.40;;;12.10;88.70;;;;;;1728835;81;21310;-73
2021/04/03 08:07:18;;;;;;;16.62;11.08;;;12.20;86.10;;;;;;1757016;81;21200;-77
2021/04/03 08:09:47;;;;;;;19.40;10.35;;;12.10;82.50;;;;;;1758441;81;21145;-78
2021/04/03 08:12:15;;;;;;;15.50;8.90;;;12.10;81.70;;;;;;1753701;81;21119;-75
2021/04/03 08:14:46;;;;;;;11.88;7.45;;;12.10;81.40;;;;;;1765417;80;21144;-78
2021/04/03 08:17:20;;;;;;;10.65;6.67;;;12.20;78.00;;;;;;1761743;81;21101;-77
2021/04/03 08:19:48;;;;;;;14.10;6.70;;;12.30;76.80;;;;;;1765189;80;21120;-75
2021/04/03 08:22:17;;;;;;;11.35;6.65;;;12.30;76.60;;;;;;1765892;80;21576;-77
2021/04/03 08:24:58;;;;;;;11.65;5.83;;;12.40;75.10;;;;;;1769935;80;21123;-77
2021/04/03 08:27:35;;;;;;;9.93;5.72;;;12.30;76.50;;;;;;1728570;83;21165;-75
2021/04/03 08:30:20;;;;;;;7.45;4.95;;;12.30;75.80;;;;;;1716570;81;30090;-79
2021/04/03 08:32:37;;;;;;;8.55;5.10;;;12.20;72.30;;;;;;1763234;80;21129;-76
2021/04/03 08:35:06;;;;;;;9.85;5.10;;;12.20;72.10;;;;;;1795261;79;21125;-75
2021/04/03 08:37:34;;;;;;;7.20;4.15;;;12.20;72.00;;;;;;1789083;80;21131;-73
2021/04/03 08:40:04;;;;;;;13.83;6.15;;;12.20;70.70;;;;;;1796570;79;21156;-74
2021/04/03 08:42:33;;;;;;;7.33;4.37;;;12.10;71.00;;;;;;1790494;79;21560;-73
2021/04/03 08:45:04;;;;;;;8.50;4.55;;;12.00;71.30;;;;;;1789308;80;21129;-75
2021/04/03 08:47:31;;;;;;;7.50;3.80;;;12.00;71.30;;;;;;1796035;79;21184;-74
2021/04/03 08:50:06;;;;;;;6.80;3.25;;;12.00;68.80;;;;;;1786762;80;21136;-77
2021/04/03 08:52:39;;;;;;;4.67;2.58;;;12.00;65.50;;;;;;1787036;80;21098;-75
2021/04/03 08:55:09;;;;;;;4.78;2.60;;;11.90;63.90;;;;;;1786885;80;21133;-77
2021/04/03 08:57:39;;;;;;;4.78;2.45;;;12.00;63.00;;;;;;1786481;79;21161;-77
2021/04/03 09:00:11;;;;;;;4.22;2.05;;;12.00;59.40;;;;;;1786983;80;21563;-74
2021/04/03 09:02:39;;;;;;;7.37;2.50;;;12.00;58.50;;;;;;1788969;80;21141;-76
2021/04/03 09:05:09;;;;;;;6.08;1.82;;;12.00;57.80;;;;;;1792864;79;21540;-74
2021/04/03 09:07:37;;;;;;;3.72;2.12;;;12.00;59.80;;;;;;1791873;79;21168;-75
2021/04/03 09:10:14;;;;;;;4.00;1.95;;;12.10;58.10;;;;;;1787623;80;21173;-75
2021/04/03 09:12:43;;;;;;;4.50;1.80;;;11.90;56.40;;;;;;1791315;79;21117;-74
2021/04/03 09:15:15;;;;;;;7.90;2.10;;;11.90;58.10;;;;;;1787305;80;21550;-74
2021/04/03 09:17:56;;;;;;;4.10;1.72;;;11.70;59.70;;;;;;1810124;79;21086;-74
2021/04/03 09:20:29;;;;;;;4.92;2.02;;;11.60;60.30;;;;;;1818885;79;21556;-75
2021/04/03 09:23:07;;;;;;;5.55;2.20;;;11.60;60.40;;;;;;1794186;79;21117;-75
2021/04/03 09:25:34;;;;;;;3.95;2.12;;;11.60;60.20;;;;;;1789602;80;21101;-77
2021/04/03 09:28:14;;;;;;;6.22;1.95;;;11.50;62.00;;;;;;1789334;80;21137;-77
2021/04/03 09:30:45;;;;;;;5.58;2.22;;;11.50;61.90;;;;;;1800065;79;21098;-75
2021/04/03 09:33:16;;;;;;;3.55;2.40;;;11.40;62.30;;;;;;1791519;79;21180;-77
2021/04/03 09:35:45;;;;;;;5.15;2.70;;;11.40;63.00;;;;;;1793908;80;21120;-75
2021/04/03 09:38:13;;;;;;;6.15;2.70;;;11.30;65.10;;;;;;1793984;79;21259;-76
2021/04/03 09:40:46;;;;;;;5.10;2.70;;;11.20;65.80;;;;;;1803886;79;21132;-78
2021/04/03 09:43:15;;;;;;;4.58;2.52;;;11.20;67.20;;;;;;1797810;79;21136;-76
2021/04/03 09:45:44;;;;;;;5.17;2.80;;;11.20;67.70;;;;;;1798057;79;21117;-77
2021/04/03 09:48:12;;;;;;;7.15;2.60;;;11.20;65.70;;;;;;1801682;79;21105;-76
2021/04/03 09:50:41;;;;;;;5.47;2.50;;;11.20;67.20;;;;;;1797993;79;21141;-76
2021/04/03 09:53:12;;;;;;;4.25;2.30;;;11.20;66.40;;;;;;1794276;80;21512;-76
2021/04/03 09:55:40;;;;;;;4.60;2.40;;;11.20;66.10;;;;;;1804468;79;21153;-78
2021/04/03 09:58:11;;;;;;;5.40;2.67;;;11.30;67.80;;;;;;1824981;79;21102;-77
2021/04/03 10:00:38;;;;;;;5.97;2.37;;;11.00;63.80;;;;;;1798686;79;21133;-71
2021/04/03 10:03:06;;;;;;;4.70;2.60;;;11.00;64.80;;;;;;1797396;79;21134;-88
2021/04/03 10:05:36;;;;;;;3.45;2.08;;;10.90;64.70;;;;;;1792947;80;21140;-77
2021/04/03 10:08:04;;;;;;;4.62;2.35;;;11.00;64.70;;;;;;1800544;79;21626;-89
2021/04/03 10:10:33;;;;;;;3.60;1.90;;;11.10;65.70;;;;;;1803929;79;21126;-83
2021/04/03 10:13:01;;;;;;;6.00;2.20;;;11.20;61.20;;;;;;1799368;79;21125;-84
2021/04/03 10:15:29;;;;;;;4.83;2.30;;;11.20;59.60;;;;;;1801480;79;21117;-84
2021/04/03 10:18:03;;;;;;;4.22;2.45;;;11.20;59.20;;;;;;1767171;79;21583;-83
2021/04/03 10:20:31;;;;;;;5.47;2.45;;;11.20;58.60;;;;;;1801818;79;21144;-80
2021/04/03 10:23:02;;;;;;;6.15;2.35;;;11.30;59.40;;;;;;1793698;80;21568;-77
2021/04/03 10:25:30;;;;;;;3.65;2.20;;;11.30;58.90;;;;;;1801998;79;21102;-76
2021/04/03 10:27:57;;;;;;;4.28;2.35;;;11.40;58.80;;;;;;1800804;79;21117;-77
2021/04/03 10:30:26;;;;;;;5.05;2.45;;;11.40;59.00;;;;;;1794875;79;21551;-74
2021/04/03 10:32:53;;;;;;;5.05;1.92;;;11.30;60.40;;;;;;1799375;79;21559;-83
2021/04/03 10:35:21;;;;;;;4.95;1.90;;;11.30;59.30;;;;;;1792074;79;21128;-81
2021/04/03 10:37:49;;;;;;;5.55;2.17;;;11.20;58.40;;;;;;1792738;79;21579;-80
2021/04/03 10:40:17;;;;;;;4.17;1.60;;;11.00;58.20;;;;;;1789671;79;21125;-79
2021/04/03 10:42:45;;;;;;;4.70;1.70;;;11.00;58.50;;;;;;1793513;79;21130;-76
2021/04/03 10:45:13;;;;;;;2.87;1.52;;;11.10;58.90;;;;;;1789720;80;21543;-79
2021/04/03 10:47:40;;;;;;;3.60;1.65;;;10.90;58.90;;;;;;1791774;79;21259;-76
2021/04/03 10:50:09;;;;;;;3.67;2.02;;;10.70;58.70;;;;;;1790154;80;21280;-78
2021/04/03 10:52:37;;;;;;;3.72;2.10;;;10.80;58.90;;;;;;1788911;79;21543;-78
2021/04/03 10:55:07;;;;;;;6.42;2.00;;;10.70;59.50;;;;;;1792880;79;21165;-79
2021/04/03 10:57:34;;;;;;;4.58;2.02;;;10.80;60.00;;;;;;1796488;79;22253;-79
2021/04/03 11:00:05;;;;;;;5.85;2.20;;;10.80;59.40;;;;;;1788779;79;21287;-81
2021/04/03 11:02:32;;;;;;;3.87;1.80;;;10.80;58.90;;;;;;1789363;79;21148;-82
2021/04/03 11:05:00;;;;;;;5.15;2.05;;;10.70;58.90;;;;;;1797449;79;21136;-85
2021/04/03 11:07:28;;;;;;;5.22;2.05;;;10.90;59.30;;;;;;1797652;79;21184;-80
2021/04/03 11:09:56;;;;;;;4.17;2.30;;;10.90;59.10;;;;;;1787671;80;21124;-80
2021/04/03 11:12:24;;;;;;;3.55;1.90;;;11.00;58.60;;;;;;1791356;80;21272;-78
2021/04/03 11:14:52;;;;;;;6.62;2.30;;;11.20;58.60;;;;;;1792510;79;21137;-78
2021/04/03 11:17:19;;;;;;;3.83;2.00;;;11.20;58.80;;;;;;1791939;79;21126;-79
2021/04/03 11:19:47;;;;;;;6.90;2.47;;;11.10;58.80;;;;;;1791557;80;21176;-79
2021/04/03 11:22:15;;;;;;;4.05;2.00;;;11.00;61.00;;;;;;1789468;80;21149;-78
2021/04/03 11:24:42;;;;;;;4.00;2.42;;;10.90;61.40;;;;;;1790689;80;21754;-80
2021/04/03 11:27:11;;;;;;;5.15;2.42;;;10.80;61.80;;;;;;1792409;80;21173;-82
2021/04/03 11:29:41;;;;;;;4.58;2.50;;;10.70;62.30;;;;;;1789617;80;21274;-77
2021/04/03 11:32:08;;;;;;;4.50;2.67;;;10.70;62.30;;;;;;1787516;80;21148;-79
2021/04/03 11:34:36;;;;;;;5.08;2.62;;;10.60;62.00;;;;;;1787098;80;21173;-78
2021/04/03 11:37:04;;;;;;;5.28;2.52;;;10.60;63.10;;;;;;1787547;80;21145;-78
2021/04/03 11:39:32;;;;;;;5.25;2.35;;;10.70;62.60;;;;;;1787187;80;21165;-77
2021/04/03 11:42:00;;;;;;;5.60;2.87;;;10.60;61.80;;;;;;1786874;80;21153;-81
2021/04/03 11:44:28;;;;;;;5.62;2.47;;;10.70;63.70;;;;;;1789231;80;21568;-78
2021/04/03 11:46:57;;;;;;;4.75;2.65;;;10.70;63.00;;;;;;1792480;79;21263;-76
2021/04/03 11:49:25;;;;;;;3.85;2.40;;;10.70;62.30;;;;;;1792148;79;21157;-76
2021/04/03 11:51:54;;;;;;;4.70;2.22;;;10.60;62.40;;;;;;1791733;79;21170;-74
2021/04/03 11:54:22;;;;;;;6.08;2.40;;;10.60;62.60;;;;;;1791602;79;21117;-76
2021/04/03 11:56:50;;;;;;;4.72;2.10;;;10.50;62.20;;;;;;1792227;79;21130;-76
2021/04/03 11:59:18;;;;;;;5.47;2.60;;;10.50;62.50;;;;;;1792286;80;21105;-77
2021/04/03 12:01:46;;;;;;;4.00;2.58;;;10.50;62.40;;;;;;1792102;80;21153;-77
2021/04/03 12:04:13;;;;;;;3.08;1.98;;;10.60;64.20;;;;;;1792325;79;21684;-78
2021/04/03 12:06:41;;;;;;;4.37;2.30;;;10.70;62.80;;;;;;1792197;79;21303;-76
2021/04/03 12:09:08;;;;;;;5.72;1.90;;;10.70;61.90;;;;;;1792248;79;21149;-80
2021/04/03 12:11:36;;;;;;;3.95;1.82;;;10.70;60.70;;;;;;1792288;80;21154;-82
2021/04/03 12:14:04;;;;;;;4.35;1.90;;;10.80;59.20;;;;;;1792233;79;21141;-84
2021/04/03 12:16:33;;;;;;;4.75;2.27;;;10.80;59.50;;;;;;1792228;79;21698;-77
2021/04/03 12:19:01;;;;;;;4.17;1.92;;;10.70;58.70;;;;;;1792205;79;21323;-77
2021/04/03 12:21:29;;;;;;;6.08;2.10;;;10.60;59.80;;;;;;1792204;79;21275;-82
2021/04/03 12:23:57;;;;;;;3.80;2.10;;;10.60;60.40;;;;;;1792033;79;21314;-77
2021/04/03 12:26:24;;;;;;;4.67;2.35;;;10.50;60.50;;;;;;1792453;79;21199;-74
2021/04/03 12:28:55;;;;;;;6.37;2.30;;;10.40;60.40;;;;;;1792275;79;21284;-77
2021/04/03 12:31:23;;;;;;;5.25;2.35;;;10.50;60.80;;;;;;1792212;79;21271;-75
2021/04/03 12:33:50;;;;;;;6.08;2.22;;;10.60;60.80;;;;;;1793245;79;21334;-73
2021/04/03 12:36:20;;;;;;;4.08;2.27;;;10.60;60.40;;;;;;1796165;80;21149;-71
2021/04/03 12:38:49;;;;;;;4.15;2.10;;;10.70;59.70;;;;;;1796104;79;21122;-73
2021/04/03 12:41:17;;;;;;;4.00;2.10;;;10.60;59.60;;;;;;1796283;79;21106;-75
2021/04/03 12:43:44;;;;;;;3.40;1.80;;;10.60;59.60;;;;;;1796276;80;21160;-72
2021/04/03 12:46:12;;;;;;;3.60;2.12;;;10.60;59.60;;;;;;1796291;79;21544;-72
2021/04/03 12:48:40;;;;;;;5.62;1.95;;;10.70;58.60;;;;;;1796342;80;21161;-72
2021/04/03 12:51:08;;;;;;;4.78;1.90;;;10.80;58.50;;;;;;1796386;79;21203;-72
2021/04/03 12:53:37;;;;;;;4.00;2.17;;;10.70;58.00;;;;;;1796336;79;21149;-72
2021/04/03 12:56:06;;;;;;;5.78;2.35;;;10.80;58.10;;;;;;1796322;79;21105;-72
2021/04/03 12:58:34;;;;;;;6.53;2.98;;;10.70;59.60;;;;;;1796105;79;21132;-72